sensor_id;sensor_type;location;lat;lon;timestamp;temperature;humidity
9425;DHT22;17139;52.140;11.636;2023-12-28T00:01:53;5.70;67.10
9425;DHT22;17139;52.140;11.636;2023-12-28T00:04:20;5.70;67.10
9425;DHT22;17139;52.140;11.636;2023-12-28T00:06:47;5.70;67.10
9425;DHT22;17139;52.140;11.636;2023-12-28T00:09:16;5.70;67.10
9425;DHT22;17139;52.140;11.636;2023-12-28T00:11:43;5.70;67.10
9425;DHT22;17139;52.140;11.636;2023-12-28T00:14:10;5.70;67.00
9425;DHT22;17139;52.140;11.636;2023-12-28T00:16:37;5.70;66.80
9425;DHT22;17139;52.140;11.636;2023-12-28T00:19:04;5.80;66.80
9425;DHT22;17139;52.140;11.636;2023-12-28T00:21:31;6.10;65.00
9425;DHT22;17139;52.140;11.636;2023-12-28T00:23:59;6.10;65.30
9425;DHT22;17139;52.140;11.636;2023-12-28T00:26:27;6.00;65.70
9425;DHT22;17139;52.140;11.636;2023-12-28T00:28:54;5.90;66.00
9425;DHT22;17139;52.140;11.636;2023-12-28T00:31:21;5.90;66.10
9425;DHT22;17139;52.140;11.636;2023-12-28T00:33:48;5.90;66.20
9425;DHT22;17139;52.140;11.636;2023-12-28T00:36:15;5.90;66.20
9425;DHT22;17139;52.140;11.636;2023-12-28T00:38:43;6.00;66.20
9425;DHT22;17139;52.140;11.636;2023-12-28T00:41:10;6.00;66.10
9425;DHT22;17139;52.140;11.636;2023-12-28T00:43:38;6.00;66.10
9425;DHT22;17139;52.140;11.636;2023-12-28T00:46:05;6.00;66.10
9425;DHT22;17139;52.140;11.636;2023-12-28T00:48:32;6.00;66.00
9425;DHT22;17139;52.140;11.636;2023-12-28T00:50:59;6.00;66.00
9425;DHT22;17139;52.140;11.636;2023-12-28T00:53:26;6.30;63.60
9425;DHT22;17139;52.140;11.636;2023-12-28T00:55:53;6.30;64.30
9425;DHT22;17139;52.140;11.636;2023-12-28T00:58:20;6.20;64.90
9425;DHT22;17139;52.140;11.636;2023-12-28T01:00:49;6.90;59.40
9425;DHT22;17139;52.140;11.636;2023-12-28T01:03:19;6.70;61.00
9425;DHT22;17139;52.140;11.636;2023-12-28T01:05:46;6.40;62.20
9425;DHT22;17139;52.140;11.636;2023-12-28T01:08:16;6.30;63.80
9425;DHT22;17139;52.140;11.636;2023-12-28T01:10:43;6.30;64.40
9425;DHT22;17139;52.140;11.636;2023-12-28T01:13:10;6.20;64.60
9425;DHT22;17139;52.140;11.636;2023-12-28T01:15:37;6.10;64.70
9425;DHT22;17139;52.140;11.636;2023-12-28T01:18:06;6.10;64.90
9425;DHT22;17139;52.140;11.636;2023-12-28T01:20:33;6.20;65.10
9425;DHT22;17139;52.140;11.636;2023-12-28T01:23:00;6.20;65.90
9425;DHT22;17139;52.140;11.636;2023-12-28T01:25:27;6.30;65.00
9425;DHT22;17139;52.140;11.636;2023-12-28T01:27:54;6.30;64.80
9425;DHT22;17139;52.140;11.636;2023-12-28T01:30:21;6.40;63.60
9425;DHT22;17139;52.140;11.636;2023-12-28T01:32:48;7.30;58.00
9425;DHT22;17139;52.140;11.636;2023-12-28T01:35:17;7.20;60.00
9425;DHT22;17139;52.140;11.636;2023-12-28T01:37:44;7.20;59.80
9425;DHT22;17139;52.140;11.636;2023-12-28T01:40:11;7.10;60.80
9425;DHT22;17139;52.140;11.636;2023-12-28T01:42:38;7.10;61.40
9425;DHT22;17139;52.140;11.636;2023-12-28T01:45:06;7.00;61.50
9425;DHT22;17139;52.140;11.636;2023-12-28T01:47:34;7.10;61.70
9425;DHT22;17139;52.140;11.636;2023-12-28T01:50:02;7.10;61.80
9425;DHT22;17139;52.140;11.636;2023-12-28T01:52:30;7.10;62.00
9425;DHT22;17139;52.140;11.636;2023-12-28T01:54:57;7.10;62.10
9425;DHT22;17139;52.140;11.636;2023-12-28T01:57:25;7.20;62.30
9425;DHT22;17139;52.140;11.636;2023-12-28T01:59:52;7.20;62.30
9425;DHT22;17139;52.140;11.636;2023-12-28T02:02:21;7.10;62.20
9425;DHT22;17139;52.140;11.636;2023-12-28T02:04:49;7.20;62.20
9425;DHT22;17139;52.140;11.636;2023-12-28T02:07:16;7.20;62.30
9425;DHT22;17139;52.140;11.636;2023-12-28T02:09:45;7.20;62.10
9425;DHT22;17139;52.140;11.636;2023-12-28T02:12:12;7.20;62.10
9425;DHT22;17139;52.140;11.636;2023-12-28T02:14:39;7.30;62.20
9425;DHT22;17139;52.140;11.636;2023-12-28T02:17:10;7.50;60.20
9425;DHT22;17139;52.140;11.636;2023-12-28T02:19:42;7.50;61.00
9425;DHT22;17139;52.140;11.636;2023-12-28T02:22:13;7.40;61.50
9425;DHT22;17139;52.140;11.636;2023-12-28T02:25:15;7.40;61.70
9425;DHT22;17139;52.140;11.636;2023-12-28T02:27:43;7.40;61.70
9425;DHT22;17139;52.140;11.636;2023-12-28T02:30:12;7.40;62.20
9425;DHT22;17139;52.140;11.636;2023-12-28T02:32:49;7.40;62.20
9425;DHT22;17139;52.140;11.636;2023-12-28T02:35:23;7.40;62.00
9425;DHT22;17139;52.140;11.636;2023-12-28T02:37:53;7.40;62.10
9425;DHT22;17139;52.140;11.636;2023-12-28T02:40:22;7.40;62.10
9425;DHT22;17139;52.140;11.636;2023-12-28T02:42:50;7.40;62.00
9425;DHT22;17139;52.140;11.636;2023-12-28T02:45:18;7.50;62.10
9425;DHT22;17139;52.140;11.636;2023-12-28T02:47:45;7.50;62.20
9425;DHT22;17139;52.140;11.636;2023-12-28T02:50:12;7.50;62.10
9425;DHT22;17139;52.140;11.636;2023-12-28T02:52:39;7.50;62.10
9425;DHT22;17139;52.140;11.636;2023-12-28T02:55:07;7.50;62.20
9425;DHT22;17139;52.140;11.636;2023-12-28T02:57:37;7.80;60.10
9425;DHT22;17139;52.140;11.636;2023-12-28T03:00:05;7.80;61.00
9425;DHT22;17139;52.140;11.636;2023-12-28T03:02:35;7.70;61.40
9425;DHT22;17139;52.140;11.636;2023-12-28T03:05:02;7.60;61.70
9425;DHT22;17139;52.140;11.636;2023-12-28T03:07:29;7.60;61.80
9425;DHT22;17139;52.140;11.636;2023-12-28T03:09:56;7.60;61.90
9425;DHT22;17139;52.140;11.636;2023-12-28T03:12:23;7.60;62.00
9425;DHT22;17139;52.140;11.636;2023-12-28T03:14:52;7.60;62.00
9425;DHT22;17139;52.140;11.636;2023-12-28T03:17:19;7.70;62.10
9425;DHT22;17139;52.140;11.636;2023-12-28T03:19:46;7.70;62.10
9425;DHT22;17139;52.140;11.636;2023-12-28T03:22:13;7.70;62.10
9425;DHT22;17139;52.140;11.636;2023-12-28T03:24:41;7.70;62.20
9425;DHT22;17139;52.140;11.636;2023-12-28T03:27:08;7.70;62.10
9425;DHT22;17139;52.140;11.636;2023-12-28T03:29:35;7.70;62.20
9425;DHT22;17139;52.140;11.636;2023-12-28T03:32:04;8.40;58.90
9425;DHT22;17139;52.140;11.636;2023-12-28T03:34:31;8.30;60.10
9425;DHT22;17139;52.140;11.636;2023-12-28T03:36:58;8.10;60.90
9425;DHT22;17139;52.140;11.636;2023-12-28T03:39:24;8.00;61.30
9425;DHT22;17139;52.140;11.636;2023-12-28T03:41:51;8.00;61.70
9425;DHT22;17139;52.140;11.636;2023-12-28T03:44:19;8.00;61.90
9425;DHT22;17139;52.140;11.636;2023-12-28T03:46:47;7.90;62.00
9425;DHT22;17139;52.140;11.636;2023-12-28T03:49:17;7.90;62.20
9425;DHT22;17139;52.140;11.636;2023-12-28T03:51:44;7.90;62.40
9425;DHT22;17139;52.140;11.636;2023-12-28T03:54:11;7.90;62.70
9425;DHT22;17139;52.140;11.636;2023-12-28T03:56:38;7.90;62.80
9425;DHT22;17139;52.140;11.636;2023-12-28T03:59:06;7.90;62.80
9425;DHT22;17139;52.140;11.636;2023-12-28T04:01:33;7.90;62.90
9425;DHT22;17139;52.140;11.636;2023-12-28T04:04:00;7.90;63.00
9425;DHT22;17139;52.140;11.636;2023-12-28T04:06:29;8.00;63.10
9425;DHT22;17139;52.140;11.636;2023-12-28T04:08:56;8.00;63.20
9425;DHT22;17139;52.140;11.636;2023-12-28T04:11:23;8.00;63.30
9425;DHT22;17139;52.140;11.636;2023-12-28T04:13:50;8.90;60.50
9425;DHT22;17139;52.140;11.636;2023-12-28T04:16:17;8.70;61.20
9425;DHT22;17139;52.140;11.636;2023-12-28T04:18:44;8.70;61.10
9425;DHT22;17139;52.140;11.636;2023-12-28T04:21:12;8.60;61.60
9425;DHT22;17139;52.140;11.636;2023-12-28T04:23:41;8.50;62.20
9425;DHT22;17139;52.140;11.636;2023-12-28T04:26:08;8.30;62.50
9425;DHT22;17139;52.140;11.636;2023-12-28T04:28:35;8.20;62.80
9425;DHT22;17139;52.140;11.636;2023-12-28T04:31:03;8.10;63.20
9425;DHT22;17139;52.140;11.636;2023-12-28T04:33:31;8.00;63.40
9425;DHT22;17139;52.140;11.636;2023-12-28T04:36:00;8.00;63.50
9425;DHT22;17139;52.140;11.636;2023-12-28T04:38:27;7.90;63.70
9425;DHT22;17139;52.140;11.636;2023-12-28T04:40:55;7.80;63.80
9425;DHT22;17139;52.140;11.636;2023-12-28T04:43:22;7.70;64.00
9425;DHT22;17139;52.140;11.636;2023-12-28T04:45:50;7.70;64.10
9425;DHT22;17139;52.140;11.636;2023-12-28T04:48:17;7.70;64.20
9425;DHT22;17139;52.140;11.636;2023-12-28T04:50:46;7.70;64.30
9425;DHT22;17139;52.140;11.636;2023-12-28T04:53:14;8.40;62.30
9425;DHT22;17139;52.140;11.636;2023-12-28T04:55:41;8.20;62.50
9425;DHT22;17139;52.140;11.636;2023-12-28T04:58:10;8.00;63.10
9425;DHT22;17139;52.140;11.636;2023-12-28T05:00:38;7.80;63.30
9425;DHT22;17139;52.140;11.636;2023-12-28T05:03:05;7.70;63.80
9425;DHT22;17139;52.140;11.636;2023-12-28T05:05:32;7.60;64.20
9425;DHT22;17139;52.140;11.636;2023-12-28T05:07:59;7.50;64.30
9425;DHT22;17139;52.140;11.636;2023-12-28T05:10:26;7.50;64.50
9425;DHT22;17139;52.140;11.636;2023-12-28T05:12:53;7.40;64.50
9425;DHT22;17139;52.140;11.636;2023-12-28T05:15:22;8.00;63.70
9425;DHT22;17139;52.140;11.636;2023-12-28T05:17:49;8.60;62.00
9425;DHT22;17139;52.140;11.636;2023-12-28T05:20:16;8.20;62.20
9425;DHT22;17139;52.140;11.636;2023-12-28T05:22:43;8.00;63.20
9425;DHT22;17139;52.140;11.636;2023-12-28T05:25:10;7.80;63.70
9425;DHT22;17139;52.140;11.636;2023-12-28T05:27:37;7.60;64.00
9425;DHT22;17139;52.140;11.636;2023-12-28T05:30:06;7.50;64.40
9425;DHT22;17139;52.140;11.636;2023-12-28T05:32:35;7.40;64.60
9425;DHT22;17139;52.140;11.636;2023-12-28T05:35:02;7.30;64.70
9425;DHT22;17139;52.140;11.636;2023-12-28T05:37:30;7.20;64.90
9425;DHT22;17139;52.140;11.636;2023-12-28T05:39:57;7.20;65.00
9425;DHT22;17139;52.140;11.636;2023-12-28T05:42:24;7.10;64.90
9425;DHT22;17139;52.140;11.636;2023-12-28T05:44:51;7.10;65.10
9425;DHT22;17139;52.140;11.636;2023-12-28T05:47:18;7.80;63.70
9425;DHT22;17139;52.140;11.636;2023-12-28T05:49:46;7.60;63.50
9425;DHT22;17139;52.140;11.636;2023-12-28T05:52:13;7.40;64.10
9425;DHT22;17139;52.140;11.636;2023-12-28T05:54:41;7.20;64.50
9425;DHT22;17139;52.140;11.636;2023-12-28T05:57:09;7.10;64.90
9425;DHT22;17139;52.140;11.636;2023-12-28T05:59:38;7.00;65.00
9425;DHT22;17139;52.140;11.636;2023-12-28T06:02:05;7.00;65.30
9425;DHT22;17139;52.140;11.636;2023-12-28T06:04:32;6.90;65.30
9425;DHT22;17139;52.140;11.636;2023-12-28T06:07:02;6.90;65.40
9425;DHT22;17139;52.140;11.636;2023-12-28T06:09:29;7.10;65.20
9425;DHT22;17139;52.140;11.636;2023-12-28T06:11:56;7.00;64.80
9425;DHT22;17139;52.140;11.636;2023-12-28T06:14:23;7.00;65.10
9425;DHT22;17139;52.140;11.636;2023-12-28T06:16:50;6.90;65.20
9425;DHT22;17139;52.140;11.636;2023-12-28T06:19:17;6.80;65.40
9425;DHT22;17139;52.140;11.636;2023-12-28T06:21:44;6.80;65.50
9425;DHT22;17139;52.140;11.636;2023-12-28T06:24:13;6.70;65.50
9425;DHT22;17139;52.140;11.636;2023-12-28T06:26:40;6.70;65.70
9425;DHT22;17139;52.140;11.636;2023-12-28T06:29:08;6.60;66.40
9425;DHT22;17139;52.140;11.636;2023-12-28T06:31:35;6.60;65.80
9425;DHT22;17139;52.140;11.636;2023-12-28T06:34:02;6.60;65.80
9425;DHT22;17139;52.140;11.636;2023-12-28T06:36:29;6.70;65.70
9425;DHT22;17139;52.140;11.636;2023-12-28T06:38:57;6.70;65.40
9425;DHT22;17139;52.140;11.636;2023-12-28T06:41:25;6.70;65.60
9425;DHT22;17139;52.140;11.636;2023-12-28T06:43:53;7.00;65.30
9425;DHT22;17139;52.140;11.636;2023-12-28T06:46:20;6.90;64.80
9425;DHT22;17139;52.140;11.636;2023-12-28T06:48:47;6.80;65.10
9425;DHT22;17139;52.140;11.636;2023-12-28T06:51:16;6.80;65.30
9425;DHT22;17139;52.140;11.636;2023-12-28T06:53:44;6.70;65.40
9425;DHT22;17139;52.140;11.636;2023-12-28T06:56:11;6.70;65.60
9425;DHT22;17139;52.140;11.636;2023-12-28T06:58:39;6.60;65.60
9425;DHT22;17139;52.140;11.636;2023-12-28T07:01:06;6.70;65.70
9425;DHT22;17139;52.140;11.636;2023-12-28T07:03:33;6.60;65.60
9425;DHT22;17139;52.140;11.636;2023-12-28T07:06:01;6.60;65.70
9425;DHT22;17139;52.140;11.636;2023-12-28T07:08:28;6.60;65.70
9425;DHT22;17139;52.140;11.636;2023-12-28T07:10:55;6.50;65.60
9425;DHT22;17139;52.140;11.636;2023-12-28T07:13:22;7.10;64.70
9425;DHT22;17139;52.140;11.636;2023-12-28T07:15:51;7.00;64.40
9425;DHT22;17139;52.140;11.636;2023-12-28T07:18:19;6.70;64.90
9425;DHT22;17139;52.140;11.636;2023-12-28T07:20:46;6.60;65.30
9425;DHT22;17139;52.140;11.636;2023-12-28T07:23:13;6.50;65.60
9425;DHT22;17139;52.140;11.636;2023-12-28T07:25:40;6.40;65.70
9425;DHT22;17139;52.140;11.636;2023-12-28T07:28:07;6.40;65.80
9425;DHT22;17139;52.140;11.636;2023-12-28T07:30:34;6.30;67.00
9425;DHT22;17139;52.140;11.636;2023-12-28T07:33:02;6.30;67.10
9425;DHT22;17139;52.140;11.636;2023-12-28T07:35:29;6.20;67.10
9425;DHT22;17139;52.140;11.636;2023-12-28T07:37:56;6.70;66.00
9425;DHT22;17139;52.140;11.636;2023-12-28T07:40:23;6.60;65.20
9425;DHT22;17139;52.140;11.636;2023-12-28T07:42:50;6.50;65.50
9425;DHT22;17139;52.140;11.636;2023-12-28T07:45:17;6.40;65.70
9425;DHT22;17139;52.140;11.636;2023-12-28T07:47:49;7.10;64.50
9425;DHT22;17139;52.140;11.636;2023-12-28T07:50:17;6.90;64.20
9425;DHT22;17139;52.140;11.636;2023-12-28T07:52:45;7.10;64.40
9425;DHT22;17139;52.140;11.636;2023-12-28T07:55:12;6.90;64.40
9425;DHT22;17139;52.140;11.636;2023-12-28T07:57:39;6.70;64.90
9425;DHT22;17139;52.140;11.636;2023-12-28T08:00:07;6.60;65.30
9425;DHT22;17139;52.140;11.636;2023-12-28T08:02:34;6.50;65.50
9425;DHT22;17139;52.140;11.636;2023-12-28T08:05:02;6.50;65.60
9425;DHT22;17139;52.140;11.636;2023-12-28T08:07:30;6.50;65.80
9425;DHT22;17139;52.140;11.636;2023-12-28T08:09:57;6.40;65.80
9425;DHT22;17139;52.140;11.636;2023-12-28T08:12:24;6.40;65.90
9425;DHT22;17139;52.140;11.636;2023-12-28T08:14:53;6.40;65.80
9425;DHT22;17139;52.140;11.636;2023-12-28T08:17:20;6.50;66.00
9425;DHT22;17139;52.140;11.636;2023-12-28T08:19:47;7.00;65.10
9425;DHT22;17139;52.140;11.636;2023-12-28T08:22:14;6.90;64.60
9425;DHT22;17139;52.140;11.636;2023-12-28T08:24:43;6.80;65.00
9425;DHT22;17139;52.140;11.636;2023-12-28T08:27:10;7.10;64.80
9425;DHT22;17139;52.140;11.636;2023-12-28T08:29:37;7.00;64.50
9425;DHT22;17139;52.140;11.636;2023-12-28T08:32:04;6.90;64.80
9425;DHT22;17139;52.140;11.636;2023-12-28T08:34:32;6.80;65.10
9425;DHT22;17139;52.140;11.636;2023-12-28T08:36:59;6.80;65.40
9425;DHT22;17139;52.140;11.636;2023-12-28T08:39:26;6.80;65.50
9425;DHT22;17139;52.140;11.636;2023-12-28T08:41:55;6.80;65.50
9425;DHT22;17139;52.140;11.636;2023-12-28T08:44:22;6.80;65.60
9425;DHT22;17139;52.140;11.636;2023-12-28T08:46:49;6.80;65.60
9425;DHT22;17139;52.140;11.636;2023-12-28T08:49:16;6.80;65.70
9425;DHT22;17139;52.140;11.636;2023-12-28T08:51:43;6.80;65.70
9425;DHT22;17139;52.140;11.636;2023-12-28T08:54:10;6.80;65.60
9425;DHT22;17139;52.140;11.636;2023-12-28T08:56:37;7.00;65.40
9425;DHT22;17139;52.140;11.636;2023-12-28T08:59:05;7.00;65.10
9425;DHT22;17139;52.140;11.636;2023-12-28T09:01:33;7.00;65.30
9425;DHT22;17139;52.140;11.636;2023-12-28T09:04:02;6.90;65.40
9425;DHT22;17139;52.140;11.636;2023-12-28T09:06:29;6.90;65.50
9425;DHT22;17139;52.140;11.636;2023-12-28T09:08:56;6.90;65.40
9425;DHT22;17139;52.140;11.636;2023-12-28T09:11:23;6.90;65.50
9425;DHT22;17139;52.140;11.636;2023-12-28T09:13:51;6.90;65.60
9425;DHT22;17139;52.140;11.636;2023-12-28T09:16:19;6.80;65.60
9425;DHT22;17139;52.140;11.636;2023-12-28T09:18:46;6.80;65.70
9425;DHT22;17139;52.140;11.636;2023-12-28T09:21:13;6.80;65.70
9425;DHT22;17139;52.140;11.636;2023-12-28T09:23:40;6.80;65.80
9425;DHT22;17139;52.140;11.636;2023-12-28T09:26:07;6.70;65.70
9425;DHT22;17139;52.140;11.636;2023-12-28T09:28:34;6.70;65.70
9425;DHT22;17139;52.140;11.636;2023-12-28T09:31:02;6.70;65.80
9425;DHT22;17139;52.140;11.636;2023-12-28T09:33:31;7.50;64.40
9425;DHT22;17139;52.140;11.636;2023-12-28T09:35:58;7.40;64.20
9425;DHT22;17139;52.140;11.636;2023-12-28T09:38:25;7.20;64.60
9425;DHT22;17139;52.140;11.636;2023-12-28T09:40:54;7.20;64.90
9425;DHT22;17139;52.140;11.636;2023-12-28T09:43:23;7.10;64.90
9425;DHT22;17139;52.140;11.636;2023-12-28T09:45:51;7.10;65.20
9425;DHT22;17139;52.140;11.636;2023-12-28T09:48:19;7.10;65.30
9425;DHT22;17139;52.140;11.636;2023-12-28T09:50:49;7.10;65.30
9425;DHT22;17139;52.140;11.636;2023-12-28T09:53:16;7.20;65.30
9425;DHT22;17139;52.140;11.636;2023-12-28T09:55:44;7.20;65.10
9425;DHT22;17139;52.140;11.636;2023-12-28T09:58:15;7.20;65.10
9425;DHT22;17139;52.140;11.636;2023-12-28T10:00:45;7.30;65.10
9425;DHT22;17139;52.140;11.636;2023-12-28T10:03:13;7.30;65.10
9425;DHT22;17139;52.140;11.636;2023-12-28T10:05:40;7.30;65.10
9425;DHT22;17139;52.140;11.636;2023-12-28T10:08:10;7.40;65.10
9425;DHT22;17139;52.140;11.636;2023-12-28T10:10:37;7.90;63.40
9425;DHT22;17139;52.140;11.636;2023-12-28T10:13:06;7.80;63.60
9425;DHT22;17139;52.140;11.636;2023-12-28T10:15:33;7.70;64.10
9425;DHT22;17139;52.140;11.636;2023-12-28T10:18:00;7.60;64.40
9425;DHT22;17139;52.140;11.636;2023-12-28T10:20:28;7.60;64.70
9425;DHT22;17139;52.140;11.636;2023-12-28T10:22:56;7.60;64.90
9425;DHT22;17139;52.140;11.636;2023-12-28T10:25:25;7.60;64.80
9425;DHT22;17139;52.140;11.636;2023-12-28T10:27:53;7.60;64.90
9425;DHT22;17139;52.140;11.636;2023-12-28T10:30:21;7.60;64.90
9425;DHT22;17139;52.140;11.636;2023-12-28T10:32:48;7.60;64.80
9425;DHT22;17139;52.140;11.636;2023-12-28T10:35:15;7.60;64.80
9425;DHT22;17139;52.140;11.636;2023-12-28T10:37:43;7.70;64.90
9425;DHT22;17139;52.140;11.636;2023-12-28T10:40:12;7.70;64.80
9425;DHT22;17139;52.140;11.636;2023-12-28T10:42:49;7.80;64.80
9425;DHT22;17139;52.140;11.636;2023-12-28T10:45:19;7.80;64.80
9425;DHT22;17139;52.140;11.636;2023-12-28T10:47:59;8.10;63.60
9425;DHT22;17139;52.140;11.636;2023-12-28T10:50:30;8.10;63.80
9425;DHT22;17139;52.140;11.636;2023-12-28T10:53:08;8.00;64.20
9425;DHT22;17139;52.140;11.636;2023-12-28T10:55:43;8.00;64.40
9425;DHT22;17139;52.140;11.636;2023-12-28T10:58:17;8.00;64.40
9425;DHT22;17139;52.140;11.636;2023-12-28T11:00:54;8.10;64.60
9425;DHT22;17139;52.140;11.636;2023-12-28T11:03:26;8.00;65.30
9425;DHT22;17139;52.140;11.636;2023-12-28T11:05:55;8.00;64.60
9425;DHT22;17139;52.140;11.636;2023-12-28T11:08:23;8.10;64.70
9425;DHT22;17139;52.140;11.636;2023-12-28T11:10:51;8.10;64.70
9425;DHT22;17139;52.140;11.636;2023-12-28T11:13:20;8.10;64.70
9425;DHT22;17139;52.140;11.636;2023-12-28T11:15:48;8.10;64.60
9425;DHT22;17139;52.140;11.636;2023-12-28T11:18:16;8.10;64.60
9425;DHT22;17139;52.140;11.636;2023-12-28T11:20:44;8.10;64.60
9425;DHT22;17139;52.140;11.636;2023-12-28T11:23:13;8.20;64.70
9425;DHT22;17139;52.140;11.636;2023-12-28T11:25:40;8.80;62.80
9425;DHT22;17139;52.140;11.636;2023-12-28T11:28:10;8.60;62.90
9425;DHT22;17139;52.140;11.636;2023-12-28T11:30:41;8.40;63.60
9425;DHT22;17139;52.140;11.636;2023-12-28T11:33:10;9.20;61.10
9425;DHT22;17139;52.140;11.636;2023-12-28T11:35:38;8.80;62.00
9425;DHT22;17139;52.140;11.636;2023-12-28T11:38:08;8.70;63.10
9425;DHT22;17139;52.140;11.636;2023-12-28T11:40:42;8.50;63.50
9425;DHT22;17139;52.140;11.636;2023-12-28T11:43:17;8.50;63.80
9425;DHT22;17139;52.140;11.636;2023-12-28T11:45:49;8.50;64.20
9425;DHT22;17139;52.140;11.636;2023-12-28T11:48:24;8.50;64.40
9425;DHT22;17139;52.140;11.636;2023-12-28T11:50:55;8.40;64.30
9425;DHT22;17139;52.140;11.636;2023-12-28T11:53:23;8.50;64.50
9425;DHT22;17139;52.140;11.636;2023-12-28T11:55:50;8.60;64.50
9425;DHT22;17139;52.140;11.636;2023-12-28T11:58:17;8.70;64.40
9425;DHT22;17139;52.140;11.636;2023-12-28T12:00:44;8.80;64.20
9425;DHT22;17139;52.140;11.636;2023-12-28T12:03:13;8.80;64.20
9425;DHT22;17139;52.140;11.636;2023-12-28T12:05:40;9.80;60.60
9425;DHT22;17139;52.140;11.636;2023-12-28T12:08:09;9.50;61.70
9425;DHT22;17139;52.140;11.636;2023-12-28T12:10:39;9.80;61.20
9425;DHT22;17139;52.140;11.636;2023-12-28T12:13:06;9.60;62.00
9425;DHT22;17139;52.140;11.636;2023-12-28T12:15:34;9.60;62.50
9425;DHT22;17139;52.140;11.636;2023-12-28T12:18:01;9.60;62.80
9425;DHT22;17139;52.140;11.636;2023-12-28T12:20:30;9.60;62.90
9425;DHT22;17139;52.140;11.636;2023-12-28T12:22:58;9.60;62.90
9425;DHT22;17139;52.140;11.636;2023-12-28T12:25:25;9.60;63.10
9425;DHT22;17139;52.140;11.636;2023-12-28T12:27:53;9.70;63.30
9425;DHT22;17139;52.140;11.636;2023-12-28T12:30:20;9.60;63.20
9425;DHT22;17139;52.140;11.636;2023-12-28T12:32:48;9.70;63.30
9425;DHT22;17139;52.140;11.636;2023-12-28T12:35:15;9.70;63.30
9425;DHT22;17139;52.140;11.636;2023-12-28T12:37:45;9.70;63.30
9425;DHT22;17139;52.140;11.636;2023-12-28T12:40:12;9.70;63.40
9425;DHT22;17139;52.140;11.636;2023-12-28T12:42:41;9.90;62.30
9425;DHT22;17139;52.140;11.636;2023-12-28T12:45:08;9.90;62.70
9425;DHT22;17139;52.140;11.636;2023-12-28T12:47:36;9.90;62.90
9425;DHT22;17139;52.140;11.636;2023-12-28T12:50:03;10.40;59.60
9425;DHT22;17139;52.140;11.636;2023-12-28T12:52:31;10.20;60.60
9425;DHT22;17139;52.140;11.636;2023-12-28T12:54:59;10.10;61.60
9425;DHT22;17139;52.140;11.636;2023-12-28T12:57:26;9.90;62.00
9425;DHT22;17139;52.140;11.636;2023-12-28T12:59:54;9.90;62.50
9425;DHT22;17139;52.140;11.636;2023-12-28T13:02:22;9.90;62.60
9425;DHT22;17139;52.140;11.636;2023-12-28T13:04:51;9.90;62.60
9425;DHT22;17139;52.140;11.636;2023-12-28T13:07:19;9.80;62.90
9425;DHT22;17139;52.140;11.636;2023-12-28T13:09:46;9.80;63.00
9425;DHT22;17139;52.140;11.636;2023-12-28T13:12:14;9.80;62.70
9425;DHT22;17139;52.140;11.636;2023-12-28T13:14:41;9.80;62.70
9425;DHT22;17139;52.140;11.636;2023-12-28T13:17:10;9.90;62.50
9425;DHT22;17139;52.140;11.636;2023-12-28T13:19:37;10.30;60.00
9425;DHT22;17139;52.140;11.636;2023-12-28T13:22:04;10.30;61.10
9425;DHT22;17139;52.140;11.636;2023-12-28T13:24:31;10.10;61.60
9425;DHT22;17139;52.140;11.636;2023-12-28T13:26:58;10.60;59.30
9425;DHT22;17139;52.140;11.636;2023-12-28T13:29:27;10.50;60.70
9425;DHT22;17139;52.140;11.636;2023-12-28T13:31:55;10.30;61.40
9425;DHT22;17139;52.140;11.636;2023-12-28T13:34:23;10.20;61.90
9425;DHT22;17139;52.140;11.636;2023-12-28T13:36:50;10.10;62.00
9425;DHT22;17139;52.140;11.636;2023-12-28T13:39:19;10.10;62.30
9425;DHT22;17139;52.140;11.636;2023-12-28T13:41:46;10.10;62.40
9425;DHT22;17139;52.140;11.636;2023-12-28T13:44:13;10.00;62.20
9425;DHT22;17139;52.140;11.636;2023-12-28T13:46:41;10.00;62.40
9425;DHT22;17139;52.140;11.636;2023-12-28T13:49:09;10.10;62.50
9425;DHT22;17139;52.140;11.636;2023-12-28T13:51:35;10.10;62.70
9425;DHT22;17139;52.140;11.636;2023-12-28T13:54:03;10.00;62.70
9425;DHT22;17139;52.140;11.636;2023-12-28T13:56:31;10.10;62.60
9425;DHT22;17139;52.140;11.636;2023-12-28T13:58:58;10.70;59.40
9425;DHT22;17139;52.140;11.636;2023-12-28T14:01:25;10.40;60.50
9425;DHT22;17139;52.140;11.636;2023-12-28T14:03:53;10.20;61.00
9425;DHT22;17139;52.140;11.636;2023-12-28T14:06:20;10.10;61.70
9425;DHT22;17139;52.140;11.636;2023-12-28T14:08:47;9.90;62.30
9425;DHT22;17139;52.140;11.636;2023-12-28T14:11:14;9.80;62.50
9425;DHT22;17139;52.140;11.636;2023-12-28T14:13:41;9.70;62.70
9425;DHT22;17139;52.140;11.636;2023-12-28T14:16:09;9.70;62.90
9425;DHT22;17139;52.140;11.636;2023-12-28T14:18:36;9.70;62.90
9425;DHT22;17139;52.140;11.636;2023-12-28T14:21:07;9.60;63.70
9425;DHT22;17139;52.140;11.636;2023-12-28T14:23:35;9.50;63.00
9425;DHT22;17139;52.140;11.636;2023-12-28T14:26:03;9.50;63.20
9425;DHT22;17139;52.140;11.636;2023-12-28T14:28:33;9.40;63.10
9425;DHT22;17139;52.140;11.636;2023-12-28T14:31:02;9.30;63.30
9425;DHT22;17139;52.140;11.636;2023-12-28T14:33:30;9.30;63.40
9425;DHT22;17139;52.140;11.636;2023-12-28T14:35:58;9.20;62.90
9425;DHT22;17139;52.140;11.636;2023-12-28T14:38:27;9.20;63.10
9425;DHT22;17139;52.140;11.636;2023-12-28T14:40:54;9.10;63.30
9425;DHT22;17139;52.140;11.636;2023-12-28T14:43:21;9.00;63.40
9425;DHT22;17139;52.140;11.636;2023-12-28T14:45:48;9.00;63.50
9425;DHT22;17139;52.140;11.636;2023-12-28T14:48:17;8.90;63.50
9425;DHT22;17139;52.140;11.636;2023-12-28T14:50:45;8.80;63.60
9425;DHT22;17139;52.140;11.636;2023-12-28T14:53:12;8.80;63.60
9425;DHT22;17139;52.140;11.636;2023-12-28T14:55:41;8.80;63.60
9425;DHT22;17139;52.140;11.636;2023-12-28T14:58:08;8.70;63.60
9425;DHT22;17139;52.140;11.636;2023-12-28T15:00:35;8.60;63.60
9425;DHT22;17139;52.140;11.636;2023-12-28T15:03:03;8.60;63.60
9425;DHT22;17139;52.140;11.636;2023-12-28T15:05:30;8.60;63.70
9425;DHT22;17139;52.140;11.636;2023-12-28T15:07:57;8.60;63.70
9425;DHT22;17139;52.140;11.636;2023-12-28T15:10:25;8.60;63.70
9425;DHT22;17139;52.140;11.636;2023-12-28T15:12:54;8.50;63.70
9425;DHT22;17139;52.140;11.636;2023-12-28T15:15:22;8.70;62.80
9425;DHT22;17139;52.140;11.636;2023-12-28T15:17:49;8.60;62.80
9425;DHT22;17139;52.140;11.636;2023-12-28T15:20:17;8.50;63.10
9425;DHT22;17139;52.140;11.636;2023-12-28T15:22:45;8.90;61.50
9425;DHT22;17139;52.140;11.636;2023-12-28T15:25:12;8.80;62.00
9425;DHT22;17139;52.140;11.636;2023-12-28T15:27:39;8.60;62.70
9425;DHT22;17139;52.140;11.636;2023-12-28T15:30:08;8.50;63.00
9425;DHT22;17139;52.140;11.636;2023-12-28T15:32:36;8.40;63.20
9425;DHT22;17139;52.140;11.636;2023-12-28T15:35:04;8.30;63.50
9425;DHT22;17139;52.140;11.636;2023-12-28T15:37:32;8.30;63.60
9425;DHT22;17139;52.140;11.636;2023-12-28T15:39:59;8.20;63.60
9425;DHT22;17139;52.140;11.636;2023-12-28T15:42:26;8.20;63.70
9425;DHT22;17139;52.140;11.636;2023-12-28T15:44:53;8.10;63.70
9425;DHT22;17139;52.140;11.636;2023-12-28T15:47:21;8.10;63.80
9425;DHT22;17139;52.140;11.636;2023-12-28T15:49:48;8.00;63.80